createdAt,value
2022-12-27T00:01:44.180Z,97751.53
2022-12-27T00:04:12.445Z,97758.02
2022-12-27T00:06:40.663Z,97749.79
2022-12-27T00:09:09.277Z,97738.70
2022-12-27T00:11:38.232Z,97723.94
2022-12-27T00:14:07.532Z,97717.95
2022-12-27T00:16:35.819Z,97715.96
2022-12-27T00:19:04.999Z,97718.50
2022-12-27T00:21:35.935Z,97720.11
2022-12-27T00:24:04.847Z,97718.91
2022-12-27T00:26:34.631Z,97720.42
2022-12-27T00:29:03.589Z,97724.70
2022-12-27T00:31:32.660Z,97729.30
2022-12-27T00:34:03.072Z,97730.15
2022-12-27T00:36:31.827Z,97725.48
2022-12-27T00:39:00.596Z,97726.98
2022-12-27T00:41:29.061Z,97720.41
2022-12-27T00:43:57.359Z,97714.02
2022-12-27T00:46:25.559Z,97711.78
2022-12-27T00:48:54.942Z,97711.04
2022-12-27T00:51:24.408Z,97708.49
2022-12-27T00:53:53.592Z,97705.89
2022-12-27T00:56:26.742Z,97701.85
2022-12-27T00:58:55.281Z,97705.56
2022-12-27T01:01:25.461Z,97708.50
2022-12-27T01:03:54.315Z,97716.10
2022-12-27T01:06:25.089Z,97727.98
2022-12-27T01:08:53.317Z,97735.18
2022-12-27T01:11:21.792Z,97740.55
2022-12-27T01:13:50.035Z,97746.02
2022-12-27T01:16:21.103Z,97752.62
2022-12-27T01:18:49.722Z,97759.30
2022-12-27T01:21:19.734Z,97764.21
2022-12-27T01:23:48.538Z,97764.85
2022-12-27T01:26:19.941Z,97768.70
2022-12-27T01:28:48.749Z,97773.34
2022-12-27T01:31:18.686Z,97777.36
2022-12-27T01:33:47.864Z,97779.31
2022-12-27T01:36:18.829Z,97784.74
2022-12-27T01:38:48.056Z,97778.08
2022-12-27T01:41:37.543Z,97775.92
2022-12-27T01:44:48.602Z,97773.65
2022-12-27T01:47:23.196Z,97773.44
2022-12-27T01:49:59.985Z,97769.10
2022-12-27T01:52:35.031Z,97767.18
2022-12-27T01:55:11.568Z,97772.38
2022-12-27T01:57:40.299Z,97780.02
2022-12-27T02:00:11.268Z,97782.77
2022-12-27T02:02:40.422Z,97788.33
2022-12-27T02:05:12.716Z,97788.91
2022-12-27T02:07:54.087Z,97791.23
2022-12-27T02:10:22.457Z,97797.23
2022-12-27T02:12:51.956Z,97796.52
2022-12-27T02:15:20.200Z,97797.78
2022-12-27T02:17:48.497Z,97795.98
2022-12-27T02:20:22.309Z,97795.94
2022-12-27T02:23:43.139Z,97803.27
2022-12-27T02:26:56.286Z,97811.42
2022-12-27T02:29:52.397Z,97812.55
2022-12-27T02:32:27.533Z,97811.91
2022-12-27T02:35:11.663Z,97810.89
2022-12-27T02:37:44.978Z,97810.94
2022-12-27T02:40:33.967Z,97813.48
2022-12-27T02:43:22.119Z,97818.90
2022-12-27T02:46:21.398Z,97817.23
2022-12-27T02:49:13.526Z,97819.16
2022-12-27T02:52:07.747Z,97818.77
2022-12-27T02:54:55.731Z,97820.33
2022-12-27T02:57:37.121Z,97820.57
2022-12-27T03:00:29.708Z,97829.42
2022-12-27T03:03:29.439Z,97835.30
2022-12-27T03:06:42.565Z,97841.23
2022-12-27T03:09:57.042Z,97848.08
2022-12-27T03:12:53.660Z,97855.11
2022-12-27T03:15:52.360Z,97859.19
2022-12-27T03:18:30.467Z,97860.52
2022-12-27T03:21:20.476Z,97867.02
2022-12-27T03:24:09.173Z,97870.86
2022-12-27T03:26:40.846Z,97872.46
2022-12-27T03:29:30.002Z,97875.73
2022-12-27T03:32:21.937Z,97879.86
2022-12-27T03:34:53.014Z,97884.16
2022-12-27T03:37:45.019Z,97887.69
2022-12-27T03:40:23.039Z,97892.20
2022-12-27T03:43:13.045Z,97899.90
2022-12-27T03:46:17.856Z,97905.45
2022-12-27T03:48:56.793Z,97913.75
2022-12-27T03:51:27.701Z,97914.05
2022-12-27T03:54:03.734Z,97917.55
2022-12-27T03:56:32.249Z,97920.47
2022-12-27T03:59:02.140Z,97923.20
2022-12-27T04:01:30.416Z,97926.33
2022-12-27T04:03:58.643Z,97927.98
2022-12-27T04:06:26.847Z,97928.48
2022-12-27T04:09:13.445Z,97933.64
2022-12-27T04:11:59.745Z,97939.77
2022-12-27T04:14:46.361Z,97941.16
2022-12-27T04:17:32.791Z,97942.42
2022-12-27T04:20:19.351Z,97943.54
2022-12-27T04:23:06.149Z,97947.63
2022-12-27T04:25:52.646Z,97955.22
2022-12-27T04:28:38.969Z,97961.17
2022-12-27T04:31:25.499Z,97964.49
2022-12-27T04:34:12.273Z,97973.77
2022-12-27T04:36:40.465Z,97977.45
2022-12-27T04:39:08.706Z,97981.39
2022-12-27T04:41:55.150Z,97988.64
2022-12-27T04:44:41.454Z,97989.81
2022-12-27T04:47:29.282Z,97999.14
2022-12-27T04:50:15.802Z,98008.36
2022-12-27T04:53:02.211Z,98005.90
2022-12-27T04:55:30.816Z,98015.87
2022-12-27T04:57:59.443Z,98023.34
2022-12-27T05:00:48.890Z,98036.73
2022-12-27T05:03:20.937Z,98047.95
2022-12-27T05:05:51.156Z,98050.88
2022-12-27T05:08:39.078Z,98057.73
2022-12-27T05:11:26.569Z,98079.52
2022-12-27T05:14:00.483Z,98083.46
2022-12-27T05:16:30.191Z,98094.08
2022-12-27T05:18:58.825Z,98099.85
2022-12-27T05:21:27.247Z,98105.71
2022-12-27T05:24:14.286Z,98115.06
2022-12-27T05:26:42.697Z,98120.71
2022-12-27T05:29:10.940Z,98128.00
2022-12-27T05:31:39.394Z,98137.79
2022-12-27T05:34:07.602Z,98138.48
2022-12-27T05:36:35.793Z,98151.33
2022-12-27T05:39:04.263Z,98159.09
2022-12-27T05:41:32.478Z,98153.93
2022-12-27T05:44:04.973Z,98165.29
2022-12-27T05:46:35.347Z,98169.57
2022-12-27T05:49:03.634Z,98173.11
2022-12-27T05:51:31.883Z,98179.96
2022-12-27T05:54:00.104Z,98192.73
2022-12-27T05:56:28.904Z,98197.96
2022-12-27T05:58:57.127Z,98199.98
2022-12-27T06:01:25.762Z,98202.77
2022-12-27T06:03:54.004Z,98208.16
2022-12-27T06:06:22.189Z,98217.40
2022-12-27T06:08:50.344Z,98217.66
2022-12-27T06:11:19.857Z,98215.52
2022-12-27T06:13:52.212Z,98227.89
2022-12-27T06:16:21.886Z,98230.02
2022-12-27T06:18:50.219Z,98230.68
2022-12-27T06:21:21.010Z,98231.30
2022-12-27T06:23:49.689Z,98234.42
2022-12-27T06:26:20.983Z,98243.88
2022-12-27T06:28:50.647Z,98250.04
2022-12-27T06:31:19.793Z,98251.05
2022-12-27T06:33:48.711Z,98256.89
2022-12-27T06:36:18.527Z,98265.65
2022-12-27T06:38:47.617Z,98277.77
2022-12-27T06:41:17.717Z,98287.51
2022-12-27T06:43:46.745Z,98293.63
2022-12-27T06:46:17.882Z,98295.48
2022-12-27T06:48:47.047Z,98301.84
2022-12-27T06:51:17.111Z,98302.42
2022-12-27T06:53:47.495Z,98314.39
2022-12-27T06:56:17.303Z,98321.96
2022-12-27T06:58:45.719Z,98321.77
2022-12-27T07:01:20.829Z,98324.39
2022-12-27T07:03:50.297Z,98331.28
2022-12-27T07:06:19.456Z,98337.70
2022-12-27T07:08:48.543Z,98344.90
2022-12-27T07:11:17.769Z,98352.66
2022-12-27T07:13:47.569Z,98356.42
2022-12-27T07:16:20.034Z,98360.20
2022-12-27T07:18:50.125Z,98359.90
2022-12-27T07:21:20.910Z,98364.48
2022-12-27T07:23:49.861Z,98368.61
2022-12-27T07:26:20.333Z,98368.61
2022-12-27T07:28:49.049Z,98367.23
2022-12-27T07:31:20.292Z,98366.89
2022-12-27T07:33:48.567Z,98377.17
2022-12-27T07:36:19.838Z,98380.58
2022-12-27T07:38:48.264Z,98390.55
2022-12-27T07:41:17.099Z,98394.04
2022-12-27T07:43:45.449Z,98398.20
2022-12-27T07:46:15.759Z,98402.00
2022-12-27T07:48:44.819Z,98405.06
2022-12-27T07:51:14.057Z,98414.39
2022-12-27T07:53:42.817Z,98419.33
2022-12-27T07:56:17.679Z,98427.88
2022-12-27T07:58:50.042Z,98435.94
2022-12-27T08:01:20.548Z,98438.70
2022-12-27T08:03:49.085Z,98444.20
2022-12-27T08:06:22.865Z,98447.16
2022-12-27T08:08:52.498Z,98447.68
2022-12-27T08:11:20.960Z,98453.95
2022-12-27T08:13:49.255Z,98463.03
2022-12-27T08:16:19.781Z,98467.32
2022-12-27T08:18:48.188Z,98475.98
2022-12-27T08:21:17.113Z,98472.61
2022-12-27T08:23:45.512Z,98482.46
2022-12-27T08:26:14.169Z,98489.58
2022-12-27T08:28:42.601Z,98490.40
2022-12-27T08:31:12.613Z,98491.98
2022-12-27T08:33:41.308Z,98498.70
2022-12-27T08:36:36.811Z,98498.33
2022-12-27T08:39:00.113Z,98505.28
2022-12-27T08:41:28.341Z,98512.08
2022-12-27T08:43:56.530Z,98520.58
2022-12-27T08:46:25.073Z,98522.45
2022-12-27T08:48:53.381Z,98519.64
2022-12-27T08:51:32.799Z,98516.20
2022-12-27T08:54:07.164Z,98517.89
2022-12-27T08:56:35.334Z,98518.99
2022-12-27T08:59:03.755Z,98523.17
2022-12-27T09:01:32.209Z,98529.25
2022-12-27T09:04:00.548Z,98530.75
2022-12-27T09:06:28.819Z,98531.21
2022-12-27T09:08:57.411Z,98533.19
2022-12-27T09:11:27.543Z,98533.52
2022-12-27T09:13:58.381Z,98539.43
2022-12-27T09:16:28.395Z,98540.09
2022-12-27T09:18:58.922Z,98539.86
2022-12-27T09:21:29.192Z,98542.79
2022-12-27T09:23:57.779Z,98544.57
2022-12-27T09:26:29.877Z,98544.09
2022-12-27T09:28:59.331Z,98540.94
2022-12-27T09:31:28.321Z,98540.16
2022-12-27T09:33:57.755Z,98537.63
2022-12-27T09:36:28.308Z,98538.20
2022-12-27T09:38:58.105Z,98530.66
2022-12-27T09:42:44.470Z,98536.41
2022-12-27T09:44:36.077Z,98536.20
2022-12-27T09:47:10.734Z,98534.33
2022-12-27T09:49:41.337Z,98540.23
2022-12-27T09:52:16.438Z,98542.54
2022-12-27T09:55:05.164Z,98543.69
2022-12-27T09:57:37.677Z,98542.63
2022-12-27T10:00:14.350Z,98541.22
2022-12-27T10:02:44.040Z,98547.48
2022-12-27T10:05:20.755Z,98546.62
2022-12-27T10:08:01.086Z,98549.47
2022-12-27T10:10:40.735Z,98545.90
2022-12-27T10:13:25.604Z,98543.09
2022-12-27T10:16:05.060Z,98541.25
2022-12-27T10:18:43.042Z,98530.92
2022-12-27T10:21:19.326Z,98531.23
2022-12-27T10:23:52.849Z,98530.38
2022-12-27T10:26:21.698Z,98524.23
2022-12-27T10:28:57.379Z,98524.44
2022-12-27T10:31:26.520Z,98528.20
2022-12-27T10:33:54.983Z,98527.97
2022-12-27T10:36:25.584Z,98526.36
2022-12-27T10:38:54.511Z,98534.77
2022-12-27T10:41:38.238Z,98525.66
2022-12-27T10:44:10.244Z,98531.23
2022-12-27T10:46:40.967Z,98533.71
2022-12-27T10:49:24.022Z,98534.72
2022-12-27T10:51:53.930Z,98537.58
2022-12-27T10:54:25.068Z,98545.98
2022-12-27T10:56:53.819Z,98546.89
2022-12-27T10:59:23.779Z,98551.36
2022-12-27T11:02:16.235Z,98549.32
2022-12-27T11:04:58.490Z,98551.16
2022-12-27T11:07:31.214Z,98552.06
2022-12-27T11:10:13.880Z,98552.52
2022-12-27T11:12:55.296Z,98551.60
2022-12-27T11:15:23.956Z,98548.85
2022-12-27T11:17:55.094Z,98548.09
2022-12-27T11:20:26.626Z,98556.29
2022-12-27T11:22:59.189Z,98558.19
2022-12-27T11:25:28.944Z,98568.44
2022-12-27T11:28:01.048Z,98564.92
2022-12-27T11:30:32.770Z,98566.75
2022-12-27T11:33:05.833Z,98565.78
2022-12-27T11:35:46.005Z,98566.14
2022-12-27T11:38:23.967Z,98562.61
2022-12-27T11:41:01.969Z,98568.37
2022-12-27T11:43:35.444Z,98561.88
2022-12-27T11:46:12.987Z,98562.11
2022-12-27T11:48:44.790Z,98551.45
2022-12-27T11:51:29.624Z,98553.11
2022-12-27T11:54:30.531Z,98554.08
2022-12-27T11:57:12.119Z,98554.74
2022-12-27T11:59:51.864Z,98553.01
2022-12-27T12:02:30.394Z,98555.19
2022-12-27T12:05:30.363Z,98553.45
2022-12-27T12:08:15.394Z,98552.22
2022-12-27T12:10:52.498Z,98553.38
2022-12-27T12:13:47.066Z,98551.20
2022-12-27T12:16:38.831Z,98557.23
2022-12-27T12:19:26.185Z,98555.80
2022-12-27T12:22:05.143Z,98563.20
2022-12-27T12:24:44.980Z,98570.36
2022-12-27T12:27:31.361Z,98566.36
2022-12-27T12:30:27.944Z,98563.35
2022-12-27T12:33:14.005Z,98563.48
2022-12-27T12:35:56.677Z,98562.80
2022-12-27T12:38:33.576Z,98566.55
2022-12-27T12:41:21.259Z,98559.05
2022-12-27T12:44:07.648Z,98560.41
2022-12-27T12:46:43.995Z,98561.21
2022-12-27T12:49:32.328Z,98570.22
2022-12-27T12:52:25.113Z,98578.11
2022-12-27T12:55:17.946Z,98579.38
2022-12-27T12:57:56.811Z,98582.84
2022-12-27T13:00:35.707Z,98581.02
2022-12-27T13:03:45.175Z,98573.69
2022-12-27T13:06:30.678Z,98576.05
2022-12-27T13:09:06.867Z,98577.69
2022-12-27T13:11:53.239Z,98587.08
2022-12-27T13:14:49.664Z,98590.73
2022-12-27T13:17:28.005Z,98592.35
2022-12-27T13:20:09.642Z,98599.39
2022-12-27T13:22:50.458Z,98592.73
2022-12-27T13:25:34.092Z,98595.84
2022-12-27T13:28:26.083Z,98595.14
2022-12-27T13:31:02.723Z,98596.70
2022-12-27T13:33:44.284Z,98602.04
2022-12-27T13:36:23.780Z,98603.10
2022-12-27T13:39:07.991Z,98604.69
2022-12-27T13:41:51.089Z,98605.38
2022-12-27T13:44:33.323Z,98606.31
2022-12-27T13:47:21.553Z,98605.93
2022-12-27T13:50:08.938Z,98601.76
2022-12-27T13:52:59.733Z,98604.42
2022-12-27T13:55:37.408Z,98609.06
2022-12-27T13:58:38.544Z,98613.52
2022-12-27T14:01:25.439Z,98612.14
2022-12-27T14:04:15.015Z,98612.12
2022-12-27T14:07:21.441Z,98609.57
2022-12-27T14:10:03.029Z,98608.83
2022-12-27T14:12:55.625Z,98604.38
2022-12-27T14:15:30.075Z,98609.40
2022-12-27T14:18:14.235Z,98602.36
2022-12-27T14:20:57.472Z,98607.23
2022-12-27T14:23:39.813Z,98604.30
2022-12-27T14:26:42.003Z,98601.73
2022-12-27T14:30:01.855Z,98603.50
2022-12-27T14:33:04.511Z,98600.16
2022-12-27T14:36:04.873Z,98607.95
2022-12-27T14:39:09.359Z,98618.44
2022-12-27T14:42:10.734Z,98634.38
2022-12-27T14:45:17.400Z,98634.42
2022-12-27T14:48:03.651Z,98634.14
2022-12-27T14:51:50.405Z,98637.69
2022-12-27T14:54:41.539Z,98641.84
2022-12-27T14:57:21.491Z,98645.73
2022-12-27T14:59:57.840Z,98655.80
2022-12-27T15:02:44.317Z,98661.20
2022-12-27T15:05:25.521Z,98651.71
2022-12-27T15:08:25.481Z,98646.02
2022-12-27T15:11:04.179Z,98655.45
2022-12-27T15:13:45.267Z,98662.06
2022-12-27T15:16:21.161Z,98659.72
2022-12-27T15:19:04.420Z,98662.23
2022-12-27T15:21:57.018Z,98666.64
2022-12-27T15:24:36.563Z,98671.64
2022-12-27T15:27:17.879Z,98685.64
2022-12-27T15:30:03.664Z,98683.48
2022-12-27T15:32:41.534Z,98677.38
2022-12-27T15:35:32.782Z,98680.63
2022-12-27T15:38:09.066Z,98676.08
2022-12-27T15:40:47.510Z,98683.20
2022-12-27T15:43:30.469Z,98688.65
2022-12-27T15:46:14.102Z,98681.17
2022-12-27T15:49:04.212Z,98680.28
2022-12-27T15:51:40.891Z,98678.09
2022-12-27T15:54:37.821Z,98676.08
2022-12-27T15:57:32.764Z,98680.58
2022-12-27T16:00:15.902Z,98686.21
2022-12-27T16:02:56.194Z,98690.38
2022-12-27T16:05:44.684Z,98691.89
2022-12-27T16:08:26.716Z,98692.23
2022-12-27T16:10:57.340Z,98692.79
2022-12-27T16:13:41.447Z,98691.08
2022-12-27T16:16:55.293Z,98688.98
2022-12-27T16:19:50.149Z,98687.07
2022-12-27T16:22:35.631Z,98693.30
2022-12-27T16:25:32.220Z,98689.30
2022-12-27T16:28:05.616Z,98693.71
2022-12-27T16:30:52.287Z,98697.08
2022-12-27T16:33:27.932Z,98706.58
2022-12-27T16:36:12.100Z,98712.34
2022-12-27T16:38:47.048Z,98714.31
2022-12-27T16:41:27.775Z,98714.79
2022-12-27T16:44:13.901Z,98713.63
2022-12-27T16:47:09.623Z,98712.66
2022-12-27T16:50:06.363Z,98716.70
2022-12-27T16:52:59.520Z,98717.13
2022-12-27T16:55:47.923Z,98714.73
2022-12-27T16:58:34.656Z,98714.88
2022-12-27T17:01:04.331Z,98720.83
2022-12-27T17:03:49.798Z,98724.36
2022-12-27T17:06:52.654Z,98726.15
2022-12-27T17:09:40.975Z,98728.52
2022-12-27T17:12:20.946Z,98734.12
2022-12-27T17:15:00.603Z,98735.16
2022-12-27T17:17:29.700Z,98730.19
2022-12-27T17:20:02.574Z,98728.13
2022-12-27T17:22:35.616Z,98729.66
2022-12-27T17:25:05.634Z,98722.94
2022-12-27T17:27:52.437Z,98726.30
2022-12-27T17:30:22.142Z,98727.84
2022-12-27T17:33:05.053Z,98726.04
2022-12-27T17:35:43.418Z,98727.14
2022-12-27T17:38:24.924Z,98730.46
2022-12-27T17:41:03.903Z,98733.50
2022-12-27T17:44:01.563Z,98736.20
2022-12-27T17:46:41.764Z,98741.52
2022-12-27T17:49:11.373Z,98747.17
2022-12-27T17:52:03.428Z,98748.40
2022-12-27T17:54:50.899Z,98748.38
2022-12-27T17:57:38.393Z,98749.48
2022-12-27T18:00:23.101Z,98749.03
2022-12-27T18:02:53.269Z,98747.84
2022-12-27T18:05:27.607Z,98751.64
2022-12-27T18:08:03.202Z,98752.34
2022-12-27T18:10:33.860Z,98761.30
2022-12-27T18:13:05.307Z,98761.89
2022-12-27T18:15:36.432Z,98763.34
2022-12-27T18:18:07.480Z,98767.64
2022-12-27T18:20:39.930Z,98775.81
2022-12-27T18:23:15.406Z,98782.05
2022-12-27T18:25:55.875Z,98786.55
2022-12-27T18:28:32.262Z,98782.81
2022-12-27T18:31:07.287Z,98780.17
2022-12-27T18:33:41.988Z,98781.80
2022-12-27T18:36:14.898Z,98784.34
2022-12-27T18:38:46.355Z,98788.25
2022-12-27T18:41:19.057Z,98786.36
2022-12-27T18:43:52.897Z,98788.28
2022-12-27T18:46:28.670Z,98791.89
2022-12-27T18:48:58.079Z,98793.63
2022-12-27T18:51:33.027Z,98794.15
2022-12-27T18:54:01.927Z,98790.52
2022-12-27T18:56:32.796Z,98792.77
2022-12-27T18:59:05.115Z,98796.59
2022-12-27T19:01:40.212Z,98799.42
2022-12-27T19:04:23.936Z,98800.27
2022-12-27T19:07:05.025Z,98797.29
2022-12-27T19:09:37.535Z,98804.08
2022-12-27T19:12:19.095Z,98802.46
2022-12-27T19:14:47.651Z,98798.27
2022-12-27T19:17:21.933Z,98798.08
2022-12-27T19:19:53.953Z,98797.06
2022-12-27T19:22:39.949Z,98802.20
2022-12-27T19:25:21.919Z,98809.73
2022-12-27T19:28:05.959Z,98814.50
2022-12-27T19:30:38.470Z,98812.26
2022-12-27T19:33:13.567Z,98809.67
2022-12-27T19:35:42.882Z,98810.30
2022-12-27T19:38:19.935Z,98806.13
2022-12-27T19:40:56.678Z,98806.98
2022-12-27T19:43:30.333Z,98810.39
2022-12-27T19:45:58.712Z,98813.33
2022-12-27T19:48:26.975Z,98813.52
2022-12-27T19:50:55.874Z,98814.70
2022-12-27T19:53:31.029Z,98822.98
2022-12-27T19:56:01.092Z,98822.95
2022-12-27T19:58:32.100Z,98819.51
2022-12-27T20:01:02.823Z,98813.84
2022-12-27T20:03:31.384Z,98813.38
2022-12-27T20:06:14.034Z,98814.59
2022-12-27T20:08:50.396Z,98819.09
2022-12-27T20:11:21.548Z,98826.60
2022-12-27T20:13:50.562Z,98829.50
2022-12-27T20:16:22.773Z,98833.16
2022-12-27T20:18:51.162Z,98831.58
2022-12-27T20:21:20.649Z,98830.44
2022-12-27T20:23:49.382Z,98827.60
2022-12-27T20:26:21.456Z,98830.45
2022-12-27T20:28:51.192Z,98837.45
2022-12-27T20:31:24.207Z,98840.39
2022-12-27T20:33:54.107Z,98839.95
2022-12-27T20:36:27.887Z,98836.80
2022-12-27T20:38:57.763Z,98836.44
2022-12-27T20:41:28.796Z,98832.20
2022-12-27T20:43:59.781Z,98832.70
2022-12-27T20:46:29.012Z,98838.32
2022-12-27T20:48:57.914Z,98842.09
2022-12-27T20:51:30.948Z,98843.55
2022-12-27T20:54:01.209Z,98851.29
2022-12-27T20:56:29.712Z,98851.93
2022-12-27T20:59:00.837Z,98853.27
2022-12-27T21:01:29.546Z,98860.77
2022-12-27T21:03:58.176Z,98858.18
2022-12-27T21:06:29.935Z,98857.52
2022-12-27T21:08:58.740Z,98862.66
2022-12-27T21:11:30.839Z,98865.56
2022-12-27T21:14:03.707Z,98869.02
2022-12-27T21:16:34.090Z,98867.63
2022-12-27T21:19:06.723Z,98865.75
2022-12-27T21:21:38.957Z,98867.18
2022-12-27T21:24:10.093Z,98862.59
2022-12-27T21:26:39.538Z,98857.41
2022-12-27T21:29:09.528Z,98853.64
2022-12-27T21:31:38.354Z,98855.67
2022-12-27T21:34:07.220Z,98854.96
2022-12-27T21:36:37.611Z,98856.30
2022-12-27T21:39:06.770Z,98852.89
2022-12-27T21:41:37.317Z,98857.17
2022-12-27T21:44:06.054Z,98854.38
2022-12-27T21:46:37.036Z,98851.05
2022-12-27T21:49:07.268Z,98848.02
2022-12-27T21:51:36.836Z,98852.08
2022-12-27T21:54:05.941Z,98850.03
2022-12-27T21:56:34.609Z,98847.52
2022-12-27T21:59:06.461Z,98851.10
2022-12-27T22:01:52.014Z,98848.77
2022-12-27T22:04:21.733Z,98842.25
2022-12-27T22:06:50.542Z,98844.70
2022-12-27T22:09:18.809Z,98842.67
2022-12-27T22:11:47.378Z,98847.27
2022-12-27T22:14:15.625Z,98850.23
2022-12-27T22:16:43.912Z,98850.58
2022-12-27T22:19:13.345Z,98853.35
2022-12-27T22:21:42.025Z,98848.53
2022-12-27T22:24:18.552Z,98850.05
2022-12-27T22:26:47.799Z,98850.03
2022-12-27T22:29:16.654Z,98852.33
2022-12-27T22:31:45.899Z,98853.39
2022-12-27T22:34:14.154Z,98852.28
2022-12-27T22:36:42.449Z,98849.68
2022-12-27T22:39:10.665Z,98848.77
2022-12-27T22:41:38.888Z,98854.35
2022-12-27T22:44:09.863Z,98855.13
2022-12-27T22:47:15.685Z,98852.86
2022-12-27T22:49:35.315Z,98848.81
2022-12-27T22:52:04.233Z,98840.07
2022-12-27T22:55:04.366Z,98836.66
2022-12-27T22:57:41.494Z,98830.33
2022-12-27T23:00:13.997Z,98834.06
2022-12-27T23:02:44.326Z,98832.25
2022-12-27T23:05:14.879Z,98829.58
2022-12-27T23:08:04.720Z,98828.33
2022-12-27T23:10:34.976Z,98828.11
2022-12-27T23:13:03.501Z,98830.30
2022-12-27T23:15:31.858Z,98833.99
2022-12-27T23:18:00.190Z,98832.94
2022-12-27T23:20:28.430Z,98835.23
2022-12-27T23:22:56.689Z,98839.85
2022-12-27T23:25:25.021Z,98841.08
2022-12-27T23:27:54.878Z,98839.35
2022-12-27T23:30:23.083Z,98835.67
2022-12-27T23:32:51.330Z,98837.52
2022-12-27T23:35:19.558Z,98832.85
2022-12-27T23:37:47.911Z,98827.05
2022-12-27T23:40:16.407Z,98829.21
2022-12-27T23:42:44.768Z,98826.42
2022-12-27T23:45:13.017Z,98827.05
2022-12-27T23:47:41.205Z,98822.02
2022-12-27T23:50:11.641Z,98819.95
2022-12-27T23:52:44.377Z,98822.35
2022-12-27T23:55:12.625Z,98815.86
2022-12-27T23:57:40.859Z,98814.54
